Pagrindinis puslapis
METAR-TAF:

METAR-TAF

Oro uostai :

Makasaras, Pietų Sulavesis, Indonezija

platuma: 05-04S, ilguma: 119-33E, Aukštis: 14 m

Dabartinis oras

Ataskaita buvo paskelbta 22 minutes, ne 21:00 UTC
Vėjas 2 kt iš Pietų/Pietryčių
Temperatūra 23°C
Drėgmė 78%
Slėgis 1011 hPa
Matomumas: 8000 m
Mažai debesys ne aukštis 2000 ft

METAR: WAAA 202100Z 15002KT 8000 FEW020 23/19 Q1011 NOSIG

Laikas: 04:22 (21:22 UTC)

Prognozė

Ataskaita buvo paskelbta 4 valandos ir 22 minutes, ne 17:00 UTC
Prognozė galioja nuo 20 metu 18 UTC su 22 metu 00 UTC
Vėjas 4 kt iš Rytų/Pietryčių
Matomumas: 8000 m
Mažai debesys ne aukštis 2000 ft
Tapsmas
nuo 20 metu 18 UTC su 20 metu 20 UTC
Vėjas 4 kt iš Vakarų/Pietvakarių
Tapsmas
nuo 21 metu 04 UTC su 21 metu 06 UTC
Vėjas 10 kt iš Šiaurės Vakarų
Tapsmas
nuo 21 metu 10 UTC su 21 metu 12 UTC
Vėjas 5 kt iš Rytų

TAF: WAAA 201700Z 2018/2200 12004KT 8000 FEW020 BECMG 2018/2020 24004KT BECMG 2104/2106 32010KT BECMG 2110/2112 08005KT

Orai ataskaitas ir orų prognozės (METAR, TAF).

turimą stotys yra geltonos ir raudonos taškus žemėlapyje.

Perkelti pele per norėdami pamatyti stoties vardą.

Tada spustelėkite, norėdami matyti oro stebėjimo ir prognozės.

Norėdami pakeisti žemėlapį: spustelėkite ant žalios mygtukų su juodo kryžiaus žemyn,; žalią mygtuką su brūkšneliu, jei norite nutolinti; arba žalių rodyklių gretimoms žemėlapius.


METAR-TAF: